KANW/ANW METAR and TAF weather

Enter ICAO airport designator
Station Type Date Time Source
KANW METAR 2019/04/18 20:55 UTC NOAA

KANW 182055Z AUTO 01021G32KT 10SM RA SCT041 SCT050 BKN070 12/01 A3001 RMK AO2 LTG DSNT SE AND NW T01150012


Station Type Date Time Source
KANW Decoded METAR 2019/04/18 20:55 UTC NOAA

Ainsworth Municipal, NE, United States (KANW) 42-35N 100-00W
Apr 18, 2019 - 04:55 PM EDT / 2019.04.18 2055 UTC
Wind: from the N (010 degrees) at 24 MPH (21 KT) gusting to 37 MPH (32 KT):0
Visibility: 10 mile(s):0
Sky conditions: mostly cloudy
Weather: rain; Lightning observed
Temperature: 52.7 F (11.5 C)
Dew Point: 34.2 F (1.2 C)
Relative Humidity: 49%
Pressure (altimeter): 30.01 in. Hg (1016 hPa)
ob: KANW 182055Z AUTO 01021G32KT 10SM RA SCT041 SCT050 BKN070 12/01 A3001 RMK AO2 LTG DSNT SE AND NW T01150012
cycle: 21

Station Type Date Time Source
KANW TAF UTC NOAA

Error!

Example: see airport list